Time;durP1;ratioP1;P1;durP2;ratioP2;P2;SDS_P1;SDS_P2;PMS_P1;PMS_P2;Temp;Humidity;BMP_temperature;BMP_pressure;BME280_temperature;BME280_humidity;BME280_pressure;Samples;Min_cycle;Max_cycle;Signal;HPM_P1;HPM_P2
2022/09/15 00:01:10;;;;;;;4.50;1.60;;;14.80;99.90;;;;;;4976455;28;20305;-48
2022/09/15 00:03:39;;;;;;;3.67;1.43;;;14.80;99.90;;;;;;4976265;28;20235;-50
2022/09/15 00:06:08;;;;;;;3.03;1.57;;;14.80;99.90;;;;;;4999044;28;20228;-49
2022/09/15 00:08:38;;;;;;;3.93;1.30;;;14.80;99.90;;;;;;5015441;28;20244;-49
2022/09/15 00:11:09;;;;;;;2.40;1.40;;;14.90;99.90;;;;;;5015840;28;20241;-49
2022/09/15 00:13:39;;;;;;;2.80;1.70;;;14.90;99.90;;;;;;5015509;28;20229;-50
2022/09/15 00:16:08;;;;;;;2.57;1.30;;;14.90;99.90;;;;;;5000902;28;20229;-48
2022/09/15 00:18:41;;;;;;;3.00;1.30;;;14.90;99.90;;;;;;4995866;28;20317;-50
2022/09/15 00:21:15;;;;;;;4.93;1.60;;;14.90;99.90;;;;;;4999033;28;20237;-50
2022/09/15 00:23:45;;;;;;;3.67;1.43;;;14.90;99.90;;;;;;5008753;28;20225;-48
2022/09/15 00:26:16;;;;;;;4.17;1.57;;;14.90;99.90;;;;;;4999077;28;20237;-50
2022/09/15 00:28:45;;;;;;;4.97;1.73;;;14.90;99.90;;;;;;4995244;28;20697;-48
2022/09/15 00:31:15;;;;;;;3.60;1.40;;;15.00;99.90;;;;;;4995314;28;20292;-49
2022/09/15 00:33:47;;;;;;;3.33;1.63;;;14.90;99.90;;;;;;4995680;28;20237;-49
2022/09/15 00:36:15;;;;;;;4.37;1.60;;;14.80;99.90;;;;;;5007451;28;20232;-49
2022/09/15 00:38:45;;;;;;;3.67;1.50;;;14.80;99.90;;;;;;5015180;28;20229;-48
2022/09/15 00:41:16;;;;;;;4.03;1.60;;;14.80;99.90;;;;;;5015300;28;20228;-51
2022/09/15 00:43:50;;;;;;;3.87;1.50;;;14.80;99.90;;;;;;5014660;28;20225;-49
2022/09/15 00:46:22;;;;;;;2.60;1.60;;;14.80;99.90;;;;;;5002335;28;20320;-49
2022/09/15 00:48:57;;;;;;;3.73;1.50;;;14.80;99.90;;;;;;4995012;28;20233;-49
2022/09/15 00:51:32;;;;;;;2.77;1.43;;;14.80;99.90;;;;;;5000839;28;20236;-50
2022/09/15 00:54:04;;;;;;;3.40;1.53;;;14.80;99.90;;;;;;5005785;28;20231;-50
2022/09/15 00:56:35;;;;;;;3.47;1.50;;;14.80;99.90;;;;;;4995033;28;20246;-50
2022/09/15 00:59:06;;;;;;;4.33;1.70;;;14.80;99.90;;;;;;4994713;28;20263;-48
2022/09/15 01:01:34;;;;;;;2.80;1.60;;;14.80;99.90;;;;;;4994704;28;20246;-47
2022/09/15 01:04:03;;;;;;;3.43;1.53;;;14.90;99.90;;;;;;4994892;28;20233;-50
2022/09/15 01:06:36;;;;;;;7.40;1.97;;;14.90;99.90;;;;;;5007976;28;20233;-49
2022/09/15 01:09:12;;;;;;;3.60;1.73;;;14.90;99.90;;;;;;5007417;28;20229;-49
2022/09/15 01:11:41;;;;;;;6.50;1.80;;;14.90;99.90;;;;;;4994895;28;20593;-50
2022/09/15 01:14:09;;;;;;;3.47;1.60;;;14.80;99.90;;;;;;4994775;28;20233;-49
2022/09/15 01:16:48;;;;;;;3.60;1.57;;;14.80;99.90;;;;;;5008198;28;20220;-50
2022/09/15 01:19:55;;;;;;;4.43;1.87;;;14.80;99.90;;;;;;5014586;28;20225;-49
2022/09/15 01:22:34;;;;;;;4.30;1.63;;;14.80;99.90;;;;;;4974209;28;20233;-50
2022/09/15 01:25:08;;;;;;;5.27;1.70;;;14.80;99.90;;;;;;5001765;28;20242;-51
2022/09/15 01:28:04;;;;;;;5.23;2.03;;;14.80;99.90;;;;;;4994157;28;20248;-51
2022/09/15 01:30:37;;;;;;;4.53;1.83;;;14.80;99.90;;;;;;4989046;28;20241;-50
2022/09/15 01:33:13;;;;;;;3.13;1.90;;;14.80;99.90;;;;;;4994653;28;20713;-50
2022/09/15 01:35:56;;;;;;;4.03;1.73;;;14.80;99.90;;;;;;4988772;28;20234;-48
2022/09/15 01:38:35;;;;;;;5.83;1.80;;;14.80;99.90;;;;;;4986339;28;20221;-49
2022/09/15 01:41:08;;;;;;;5.50;1.80;;;14.80;99.90;;;;;;4994129;28;20230;-48
2022/09/15 01:43:42;;;;;;;3.93;1.80;;;14.80;99.90;;;;;;4994406;28;20229;-50
2022/09/15 01:46:13;;;;;;;3.77;1.70;;;14.80;99.90;;;;;;4994531;28;20240;-49
2022/09/15 01:48:43;;;;;;;5.70;2.00;;;14.70;99.90;;;;;;4994555;28;20240;-49
2022/09/15 01:51:11;;;;;;;3.80;1.87;;;14.70;99.90;;;;;;4997742;28;20221;-50
2022/09/15 01:53:41;;;;;;;3.43;1.70;;;14.70;99.90;;;;;;5006734;28;20234;-47
2022/09/15 01:56:11;;;;;;;3.70;1.53;;;14.70;99.90;;;;;;4987185;28;20226;-48
2022/09/15 01:58:40;;;;;;;3.93;1.83;;;14.70;99.90;;;;;;4995321;28;20230;-51
2022/09/15 02:01:14;;;;;;;3.93;1.80;;;14.70;99.90;;;;;;4993973;28;20605;-49
2022/09/15 02:03:46;;;;;;;7.33;1.87;;;14.70;99.90;;;;;;4994172;28;20236;-50
2022/09/15 02:06:21;;;;;;;4.70;2.10;;;14.70;99.90;;;;;;4997454;28;20305;-50
2022/09/15 02:08:56;;;;;;;4.90;1.60;;;14.70;99.90;;;;;;4994124;28;20224;-50
2022/09/15 02:11:29;;;;;;;3.70;1.20;;;14.70;99.90;;;;;;4993840;28;20241;-50
2022/09/15 02:14:10;;;;;;;3.23;1.60;;;14.70;99.90;;;;;;4994316;28;20585;-49
2022/09/15 02:16:45;;;;;;;4.33;1.40;;;14.70;99.90;;;;;;5001468;28;20281;-49
2022/09/15 02:19:20;;;;;;;3.53;1.37;;;14.70;99.90;;;;;;5013653;28;20307;-49
2022/09/15 02:21:54;;;;;;;3.23;1.37;;;14.70;99.90;;;;;;5010834;28;20244;-51
2022/09/15 02:24:28;;;;;;;3.90;1.53;;;14.70;99.90;;;;;;5003326;28;20233;-50
2022/09/15 02:26:57;;;;;;;5.30;1.50;;;14.70;99.90;;;;;;4993493;28;20245;-50
2022/09/15 02:29:27;;;;;;;4.73;1.57;;;14.70;99.90;;;;;;4997472;28;20225;-49
2022/09/15 02:31:58;;;;;;;5.70;1.33;;;14.70;99.90;;;;;;4997703;28;20240;-49
2022/09/15 02:34:38;;;;;;;3.50;1.30;;;14.70;99.90;;;;;;4997691;28;20229;-51
2022/09/15 02:37:08;;;;;;;5.83;1.57;;;14.80;99.90;;;;;;4997816;28;20229;-48
2022/09/15 02:39:42;;;;;;;4.27;1.40;;;14.80;99.90;;;;;;5011094;28;20684;-49
2022/09/15 02:42:10;;;;;;;5.37;1.50;;;14.80;99.90;;;;;;5017366;28;20228;-51
2022/09/15 02:44:38;;;;;;;4.93;1.53;;;14.80;99.90;;;;;;5017120;28;20228;-48
2022/09/15 02:47:07;;;;;;;4.63;1.50;;;14.80;99.90;;;;;;5017311;28;20592;-49
2022/09/15 02:49:35;;;;;;;2.97;1.30;;;14.80;99.90;;;;;;5017146;28;20229;-49
2022/09/15 02:52:04;;;;;;;5.77;1.73;;;14.80;99.90;;;;;;5012257;28;20284;-48
2022/09/15 02:54:32;;;;;;;2.67;1.20;;;14.80;99.90;;;;;;5006914;28;20585;-49
2022/09/15 02:57:00;;;;;;;3.57;1.20;;;14.70;99.90;;;;;;4997336;28;20749;-51
2022/09/15 03:00:11;;;;;;;3.63;1.20;;;14.70;99.90;;;;;;4997034;28;20233;-51
2022/09/15 03:02:19;;;;;;;6.60;1.40;;;14.80;99.90;;;;;;4996806;28;20241;-51
2022/09/15 03:04:48;;;;;;;5.57;1.60;;;14.80;99.90;;;;;;4997177;28;20225;-50
2022/09/15 03:07:17;;;;;;;4.20;1.30;;;14.70;99.90;;;;;;4997203;28;20637;-49
2022/09/15 03:09:45;;;;;;;3.60;1.30;;;14.70;99.90;;;;;;5003817;28;20233;-48
2022/09/15 03:12:13;;;;;;;3.27;1.30;;;14.70;99.90;;;;;;5017186;28;20230;-51
2022/09/15 03:14:41;;;;;;;5.13;1.60;;;14.70;99.90;;;;;;5016639;28;20237;-50
2022/09/15 03:17:09;;;;;;;4.00;1.30;;;14.70;99.90;;;;;;5002750;28;20252;-48
2022/09/15 03:19:39;;;;;;;3.63;1.50;;;14.70;99.90;;;;;;4997145;28;20280;-49
2022/09/15 03:22:08;;;;;;;6.23;1.73;;;14.80;99.90;;;;;;5005096;28;20748;-50
2022/09/15 03:24:36;;;;;;;4.93;1.17;;;14.70;99.90;;;;;;5006060;28;20240;-48
2022/09/15 03:27:05;;;;;;;5.27;1.60;;;14.70;99.90;;;;;;4996427;28;20245;-49
2022/09/15 03:29:33;;;;;;;3.33;1.27;;;14.70;99.90;;;;;;4999323;28;20226;-51
2022/09/15 03:32:01;;;;;;;3.67;1.30;;;14.60;99.90;;;;;;5005139;28;20240;-48
2022/09/15 03:34:29;;;;;;;3.20;1.20;;;14.60;99.90;;;;;;5006946;28;20217;-50
2022/09/15 03:36:59;;;;;;;5.37;1.10;;;14.60;99.90;;;;;;5005776;28;20672;-51
2022/09/15 03:39:27;;;;;;;2.67;1.07;;;14.60;99.90;;;;;;5004512;28;20225;-49
2022/09/15 03:41:55;;;;;;;5.00;0.93;;;14.60;99.90;;;;;;5006607;28;20233;-52
2022/09/15 03:44:23;;;;;;;4.03;1.27;;;14.60;99.90;;;;;;5015033;28;20240;-50
2022/09/15 03:46:51;;;;;;;6.27;1.23;;;14.50;99.90;;;;;;5015971;28;20244;-50
2022/09/15 03:49:19;;;;;;;4.10;1.30;;;14.50;99.90;;;;;;5015272;28;20589;-49
2022/09/15 03:51:48;;;;;;;3.07;1.30;;;14.50;99.90;;;;;;5013134;28;20236;-49
2022/09/15 03:54:17;;;;;;;4.60;1.40;;;14.50;99.90;;;;;;5000240;28;20296;-48
2022/09/15 03:56:47;;;;;;;6.43;1.57;;;14.50;99.90;;;;;;4996091;28;20234;-48
2022/09/15 03:59:17;;;;;;;4.57;1.40;;;14.60;99.90;;;;;;4996323;28;20236;-50
2022/09/15 04:01:46;;;;;;;6.57;1.40;;;14.50;99.90;;;;;;4995469;28;20247;-51
2022/09/15 04:04:15;;;;;;;4.97;1.40;;;14.40;99.90;;;;;;4999156;28;20371;-50
2022/09/15 04:06:43;;;;;;;3.73;1.03;;;14.50;99.90;;;;;;5015661;28;20241;-48
2022/09/15 04:09:11;;;;;;;5.00;1.10;;;14.50;99.90;;;;;;5015853;28;20581;-51
2022/09/15 04:11:41;;;;;;;3.93;1.10;;;14.40;99.90;;;;;;5012241;28;20226;-50
2022/09/15 04:14:09;;;;;;;4.87;1.37;;;14.50;99.90;;;;;;5015702;28;20584;-51
2022/09/15 04:16:37;;;;;;;3.80;1.10;;;14.50;99.90;;;;;;5015619;28;20225;-49
2022/09/15 04:19:06;;;;;;;3.27;0.97;;;14.50;99.90;;;;;;5015485;28;20279;-49
2022/09/15 04:21:34;;;;;;;5.87;1.37;;;14.50;99.90;;;;;;5009836;28;20229;-52
2022/09/15 04:24:03;;;;;;;2.30;0.83;;;14.50;99.90;;;;;;5004698;28;20309;-50
2022/09/15 04:26:33;;;;;;;4.17;1.13;;;14.40;99.90;;;;;;4995900;28;20802;-49
2022/09/15 04:29:04;;;;;;;3.07;1.30;;;14.40;99.90;;;;;;5014303;28;20229;-49
2022/09/15 04:31:33;;;;;;;4.50;1.03;;;14.40;99.90;;;;;;5014864;28;20280;-48
2022/09/15 04:34:02;;;;;;;3.67;1.00;;;14.40;99.90;;;;;;5015387;28;20237;-51
2022/09/15 04:36:30;;;;;;;4.80;1.27;;;14.40;99.90;;;;;;5015383;28;20217;-51
2022/09/15 04:38:58;;;;;;;3.97;1.13;;;14.40;99.90;;;;;;5015475;28;20236;-49
2022/09/15 04:41:28;;;;;;;5.83;1.37;;;14.40;99.90;;;;;;5001598;28;20230;-50
2022/09/15 04:43:56;;;;;;;4.43;1.00;;;14.30;99.90;;;;;;4995859;28;20292;-49
2022/09/15 04:46:25;;;;;;;4.67;1.30;;;14.40;99.90;;;;;;4995642;28;20241;-51
2022/09/15 04:48:53;;;;;;;5.53;1.23;;;14.40;99.90;;;;;;4995797;28;20773;-51
2022/09/15 04:51:22;;;;;;;5.63;1.40;;;14.40;99.90;;;;;;4997157;28;20229;-50
2022/09/15 04:53:51;;;;;;;5.50;1.53;;;14.40;99.90;;;;;;5005216;28;20235;-49
2022/09/15 04:56:21;;;;;;;5.07;1.20;;;14.40;99.90;;;;;;5001984;28;20280;-50
2022/09/15 04:58:51;;;;;;;4.60;1.50;;;14.40;99.90;;;;;;4994988;28;20234;-50
2022/09/15 05:01:21;;;;;;;6.07;1.57;;;14.40;99.90;;;;;;4995112;28;20238;-51
2022/09/15 05:03:51;;;;;;;5.77;1.33;;;14.40;99.90;;;;;;4995072;28;20233;-50
2022/09/15 05:06:21;;;;;;;7.40;1.33;;;14.40;99.90;;;;;;4995566;28;20229;-51
2022/09/15 05:08:50;;;;;;;3.67;1.30;;;14.30;99.90;;;;;;4995069;28;20234;-51
2022/09/15 05:11:19;;;;;;;4.57;1.30;;;14.40;99.90;;;;;;4995107;28;20305;-51
2022/09/15 05:13:48;;;;;;;5.10;1.10;;;14.40;99.90;;;;;;5002470;28;20233;-48
2022/09/15 05:16:18;;;;;;;5.07;1.50;;;14.30;99.90;;;;;;5014501;28;20693;-48
2022/09/15 05:18:47;;;;;;;4.90;1.20;;;14.30;99.90;;;;;;5014417;28;20267;-50
2022/09/15 05:21:19;;;;;;;6.97;1.23;;;14.30;99.90;;;;;;5011948;28;20226;-50
2022/09/15 05:23:49;;;;;;;3.00;0.80;;;14.20;99.90;;;;;;5005974;28;20229;-50
2022/09/15 05:26:19;;;;;;;5.00;1.20;;;14.10;99.90;;;;;;4996787;28;20233;-51
2022/09/15 05:28:47;;;;;;;5.07;1.80;;;14.10;99.90;;;;;;4994636;28;20574;-51
2022/09/15 05:31:20;;;;;;;6.10;1.20;;;14.10;99.90;;;;;;4994574;28;20649;-51
2022/09/15 05:33:50;;;;;;;6.23;1.30;;;14.10;99.90;;;;;;4976994;28;20269;-48
2022/09/15 05:36:22;;;;;;;6.80;1.53;;;14.00;99.90;;;;;;5005766;28;20232;-48
2022/09/15 05:38:51;;;;;;;3.53;1.30;;;14.00;99.90;;;;;;4993665;28;20230;-49
2022/09/15 05:41:20;;;;;;;4.87;1.40;;;14.00;99.90;;;;;;4992836;28;20234;-48
2022/09/15 05:43:49;;;;;;;5.03;1.47;;;14.00;99.90;;;;;;4993702;28;20321;-50
2022/09/15 05:46:19;;;;;;;7.10;1.07;;;14.00;99.90;;;;;;4994687;28;20236;-49
2022/09/15 05:48:47;;;;;;;4.63;1.17;;;14.00;99.90;;;;;;4993964;28;20241;-48
2022/09/15 05:51:15;;;;;;;5.47;1.43;;;14.00;99.90;;;;;;4994437;28;20247;-49
2022/09/15 05:53:45;;;;;;;7.13;1.50;;;14.00;99.90;;;;;;4993961;28;20693;-49
2022/09/15 05:56:14;;;;;;;3.07;1.10;;;14.10;99.90;;;;;;4994358;28;20237;-47
2022/09/15 05:58:44;;;;;;;4.90;1.20;;;14.10;99.90;;;;;;4998859;28;20230;-49
2022/09/15 06:01:16;;;;;;;6.27;1.80;;;14.10;99.90;;;;;;4996975;28;20234;-48
2022/09/15 06:03:45;;;;;;;4.70;1.10;;;14.10;99.90;;;;;;4993198;28;20332;-49
2022/09/15 06:06:13;;;;;;;3.07;0.97;;;14.20;99.90;;;;;;4994348;28;20592;-50
2022/09/15 06:08:45;;;;;;;3.53;1.40;;;14.20;99.90;;;;;;4996075;28;20265;-50
2022/09/15 06:11:17;;;;;;;5.60;1.03;;;14.20;99.90;;;;;;4994176;28;20237;-48
2022/09/15 06:13:45;;;;;;;6.17;1.40;;;14.30;99.90;;;;;;4999712;28;20246;-50
2022/09/15 06:16:17;;;;;;;6.03;1.60;;;14.40;99.90;;;;;;5009672;28;20553;-49
2022/09/15 06:18:46;;;;;;;4.27;1.60;;;14.40;99.90;;;;;;4998139;28;20225;-49
2022/09/15 06:21:16;;;;;;;6.30;2.10;;;14.50;99.90;;;;;;4995913;28;20234;-48
2022/09/15 06:23:46;;;;;;;5.40;1.33;;;14.70;99.90;;;;;;4995395;28;20241;-49
2022/09/15 06:26:19;;;;;;;6.50;1.60;;;14.70;99.90;;;;;;4998978;28;20292;-50
2022/09/15 06:28:49;;;;;;;3.40;1.20;;;14.80;99.90;;;;;;5000110;28;20229;-49
2022/09/15 06:31:17;;;;;;;5.50;1.53;;;14.80;99.90;;;;;;5005827;28;20636;-48
2022/09/15 06:33:47;;;;;;;4.33;1.20;;;14.80;99.90;;;;;;5012472;28;20233;-50
2022/09/15 06:36:15;;;;;;;4.10;1.20;;;14.90;99.90;;;;;;5013473;28;20577;-51
2022/09/15 06:38:47;;;;;;;6.30;1.30;;;14.90;99.90;;;;;;5012712;28;20225;-50
2022/09/15 06:41:15;;;;;;;3.67;0.97;;;14.90;99.90;;;;;;5007268;28;20225;-51
2022/09/15 06:43:45;;;;;;;2.67;0.97;;;15.00;99.90;;;;;;5009765;28;20233;-48
2022/09/15 06:46:15;;;;;;;5.10;1.20;;;15.10;99.90;;;;;;4988719;28;20233;-50
2022/09/15 06:48:44;;;;;;;7.77;1.20;;;15.10;99.90;;;;;;5009475;28;20757;-50
2022/09/15 06:51:17;;;;;;;4.40;1.10;;;15.10;99.90;;;;;;4997695;28;20275;-49
2022/09/15 06:53:47;;;;;;;4.13;1.20;;;15.30;99.90;;;;;;5012948;28;20229;-48
2022/09/15 06:56:17;;;;;;;4.13;1.13;;;15.40;99.90;;;;;;5010676;28;20280;-49
2022/09/15 06:58:47;;;;;;;4.73;1.10;;;15.40;99.90;;;;;;4998240;28;20280;-49
2022/09/15 07:01:21;;;;;;;5.57;1.23;;;15.40;99.90;;;;;;5012385;28;20317;-48
2022/09/15 07:03:49;;;;;;;6.90;1.40;;;15.20;99.90;;;;;;5011450;28;20241;-49
2022/09/15 07:06:18;;;;;;;5.03;1.10;;;15.10;99.90;;;;;;5007512;28;20232;-51
2022/09/15 07:08:48;;;;;;;6.43;1.13;;;15.00;99.90;;;;;;5006023;28;20237;-49
2022/09/15 07:11:17;;;;;;;5.13;1.40;;;15.10;99.90;;;;;;4999942;28;20241;-50
2022/09/15 07:13:45;;;;;;;3.57;0.90;;;15.00;99.90;;;;;;4998574;28;20230;-50
2022/09/15 07:16:14;;;;;;;3.80;1.03;;;15.00;99.90;;;;;;5000542;28;20232;-50
2022/09/15 07:18:42;;;;;;;3.60;0.80;;;15.10;99.90;;;;;;5003448;28;20635;-49
2022/09/15 07:21:13;;;;;;;4.60;1.43;;;15.10;99.90;;;;;;4996346;28;20603;-51
2022/09/15 07:23:41;;;;;;;3.33;1.30;;;15.10;99.90;;;;;;5016290;28;20240;-48
2022/09/15 07:26:13;;;;;;;6.10;1.30;;;15.20;99.90;;;;;;5007427;28;20276;-51
2022/09/15 07:28:42;;;;;;;4.17;1.10;;;15.30;99.90;;;;;;5011096;28;20624;-51
2022/09/15 07:31:13;;;;;;;4.20;1.10;;;15.50;99.90;;;;;;4990509;28;20233;-51
2022/09/15 07:33:41;;;;;;;5.53;1.23;;;15.50;99.90;;;;;;5016518;28;20229;-49
2022/09/15 07:36:10;;;;;;;5.40;1.30;;;15.50;99.90;;;;;;5010533;28;20218;-50
2022/09/15 07:38:41;;;;;;;4.13;0.90;;;15.70;99.90;;;;;;5015937;28;20233;-48
2022/09/15 07:41:12;;;;;;;4.57;1.10;;;15.80;99.90;;;;;;5010276;28;20235;-50
2022/09/15 07:43:44;;;;;;;3.83;1.10;;;15.70;99.90;;;;;;5011887;28;20248;-49
2022/09/15 07:46:12;;;;;;;4.43;1.03;;;15.70;99.90;;;;;;5006294;28;20225;-48
2022/09/15 07:48:43;;;;;;;6.53;1.00;;;16.10;99.90;;;;;;5000458;28;20225;-49
2022/09/15 07:51:11;;;;;;;2.97;1.10;;;16.50;99.90;;;;;;5000748;28;20629;-48
2022/09/15 07:53:39;;;;;;;3.13;0.90;;;17.10;99.90;;;;;;5005620;28;20845;-49
2022/09/15 07:56:09;;;;;;;4.37;1.13;;;17.70;99.90;;;;;;5010367;28;20229;-49
2022/09/15 07:58:38;;;;;;;6.40;1.07;;;17.80;99.90;;;;;;4994757;28;20230;-49
2022/09/15 08:01:09;;;;;;;3.07;1.00;;;17.70;99.90;;;;;;5014658;28;20244;-49
2022/09/15 08:03:40;;;;;;;4.87;1.50;;;17.70;99.90;;;;;;5013150;28;20225;-50
2022/09/15 08:06:09;;;;;;;5.43;1.30;;;17.70;99.90;;;;;;5012575;28;20234;-48
2022/09/15 08:08:38;;;;;;;4.73;1.47;;;17.50;99.90;;;;;;5009141;28;20225;-51
2022/09/15 08:11:07;;;;;;;5.00;1.13;;;17.50;99.90;;;;;;5000628;28;20229;-50
2022/09/15 08:13:37;;;;;;;7.43;1.10;;;17.50;99.90;;;;;;5009102;28;20233;-51
2022/09/15 08:16:07;;;;;;;5.13;1.33;;;17.40;99.90;;;;;;5009939;28;20702;-50
2022/09/15 08:18:35;;;;;;;3.97;1.00;;;17.50;99.90;;;;;;5013217;28;20684;-51
2022/09/15 08:21:08;;;;;;;4.67;0.93;;;17.70;99.90;;;;;;5000047;28;20234;-52
2022/09/15 08:23:37;;;;;;;4.10;1.30;;;18.10;99.90;;;;;;5003084;28;20218;-49
2022/09/15 08:26:06;;;;;;;3.93;1.13;;;18.50;99.90;;;;;;5008821;28;20226;-51
2022/09/15 08:28:42;;;;;;;3.73;1.03;;;19.00;99.90;;;;;;5005569;28;20215;-49
2022/09/15 08:31:13;;;;;;;4.20;1.23;;;19.50;99.90;;;;;;5005157;28;20235;-49
2022/09/15 08:33:41;;;;;;;3.67;1.10;;;19.80;99.90;;;;;;5013694;28;20235;-51
2022/09/15 08:36:13;;;;;;;3.93;1.20;;;20.10;99.90;;;;;;4999230;28;20231;-49
2022/09/15 08:38:42;;;;;;;2.43;0.93;;;20.20;99.90;;;;;;4994978;28;20588;-52
2022/09/15 08:41:15;;;;;;;3.00;0.97;;;20.30;99.90;;;;;;5005324;28;20229;-51
2022/09/15 08:43:49;;;;;;;5.07;0.83;;;20.60;99.90;;;;;;5004891;28;20261;-52
2022/09/15 08:46:21;;;;;;;5.43;1.00;;;20.80;99.90;;;;;;5000610;28;20227;-49
2022/09/15 08:48:58;;;;;;;6.50;1.17;;;21.10;99.90;;;;;;5012808;28;20261;-51
2022/09/15 08:51:36;;;;;;;4.30;0.90;;;21.30;99.90;;;;;;4992000;28;20267;-50
2022/09/15 08:54:10;;;;;;;3.97;0.93;;;21.40;99.90;;;;;;5012964;28;20696;-52
2022/09/15 08:56:40;;;;;;;3.43;1.00;;;21.40;99.90;;;;;;5008049;28;20232;-49
2022/09/15 08:59:14;;;;;;;3.67;0.87;;;21.60;99.90;;;;;;5012095;28;20233;-52
2022/09/15 09:02:02;;;;;;;13.13;1.70;;;21.50;99.90;;;;;;5001009;28;20244;-51
2022/09/15 09:04:45;;;;;;;6.80;1.13;;;21.40;99.90;;;;;;5003321;28;20593;-52
2022/09/15 09:07:26;;;;;;;8.67;1.30;;;21.30;99.90;;;;;;5014190;28;20227;-50
2022/09/15 09:10:03;;;;;;;6.60;1.40;;;21.40;99.90;;;;;;5010341;28;20239;-50
2022/09/15 09:12:43;;;;;;;3.67;1.10;;;21.80;99.90;;;;;;5005773;28;20618;-49
2022/09/15 09:15:38;;;;;;;2.83;1.03;;;22.20;99.90;;;;;;4996076;28;20221;-50
2022/09/15 09:18:45;;;;;;;2.93;0.90;;;22.30;99.90;;;;;;5010892;28;20240;-52
2022/09/15 09:21:22;;;;;;;4.40;0.90;;;22.00;99.90;;;;;;4993854;28;20236;-50
2022/09/15 09:23:58;;;;;;;4.03;0.97;;;21.20;99.90;;;;;;5007254;28;20237;-49
2022/09/15 09:26:28;;;;;;;2.87;0.80;;;20.50;99.90;;;;;;5000670;28;20233;-50
2022/09/15 09:28:59;;;;;;;2.67;1.07;;;20.10;99.90;;;;;;5012241;28;20233;-52
2022/09/15 09:31:29;;;;;;;3.57;0.90;;;19.70;99.90;;;;;;5004707;28;20233;-50
2022/09/15 09:34:05;;;;;;;5.90;1.27;;;19.20;99.90;;;;;;5004922;28;20241;-49
2022/09/15 09:36:33;;;;;;;2.07;0.90;;;18.70;99.90;;;;;;5007059;28;20225;-52
2022/09/15 09:39:02;;;;;;;4.53;0.90;;;18.30;99.90;;;;;;5013489;28;20231;-52
2022/09/15 09:41:35;;;;;;;5.03;1.20;;;18.20;99.90;;;;;;5001408;28;20232;-52
2022/09/15 09:44:06;;;;;;;4.57;1.27;;;18.20;99.90;;;;;;5006234;28;20232;-49
2022/09/15 09:46:35;;;;;;;3.30;0.97;;;18.10;99.90;;;;;;5004108;28;20247;-52
2022/09/15 09:49:11;;;;;;;3.17;0.90;;;18.00;99.90;;;;;;5006533;28;20231;-51
2022/09/15 09:51:47;;;;;;;5.63;0.80;;;18.30;99.90;;;;;;5006721;28;20239;-51
2022/09/15 09:54:16;;;;;;;2.70;0.80;;;18.50;99.90;;;;;;4999862;28;20232;-51
2022/09/15 09:56:45;;;;;;;5.10;1.10;;;19.00;99.90;;;;;;5001787;28;20244;-51
2022/09/15 09:59:35;;;;;;;2.03;0.80;;;19.50;99.90;;;;;;5004564;28;20224;-51
2022/09/15 10:02:23;;;;;;;5.80;1.07;;;20.10;99.90;;;;;;5002082;28;20250;-50
2022/09/15 10:04:53;;;;;;;3.43;0.80;;;20.90;99.90;;;;;;4993562;28;20315;-50
2022/09/15 10:07:24;;;;;;;1.90;0.70;;;21.50;99.90;;;;;;5006065;28;20641;-52
2022/09/15 10:09:55;;;;;;;1.83;0.67;;;21.30;99.90;;;;;;5006908;28;20236;-50
2022/09/15 10:12:29;;;;;;;1.97;0.73;;;21.10;99.90;;;;;;5008088;28;20688;-52
2022/09/15 10:14:59;;;;;;;3.33;0.80;;;21.20;99.90;;;;;;4999667;28;20726;-52
2022/09/15 10:17:40;;;;;;;2.63;0.80;;;21.40;99.90;;;;;;5004872;28;20232;-52
2022/09/15 10:20:24;;;;;;;1.97;0.63;;;21.80;99.90;;;;;;4999717;28;20256;-53
2022/09/15 10:23:01;;;;;;;2.03;0.80;;;22.00;99.90;;;;;;5009090;28;20677;-51
2022/09/15 10:25:34;;;;;;;2.83;0.87;;;22.40;99.90;;;;;;4999924;28;20221;-50
2022/09/15 10:28:24;;;;;;;4.17;0.80;;;22.70;99.90;;;;;;4996731;28;20244;-51
2022/09/15 10:31:04;;;;;;;2.17;0.57;;;22.40;99.90;;;;;;5004694;28;20245;-53
2022/09/15 10:33:35;;;;;;;6.13;0.90;;;22.20;99.90;;;;;;5009213;28;20582;-51
2022/09/15 10:36:07;;;;;;;3.20;0.83;;;22.30;99.90;;;;;;5005721;28;20646;-52
2022/09/15 10:38:41;;;;;;;3.47;0.70;;;22.00;99.90;;;;;;4996720;28;20309;-52
2022/09/15 10:41:21;;;;;;;2.73;0.83;;;21.90;99.90;;;;;;4990559;28;20238;-52
2022/09/15 10:44:24;;;;;;;5.33;0.97;;;21.70;99.90;;;;;;5010200;28;20712;-50
2022/09/15 10:47:01;;;;;;;3.50;0.73;;;21.60;99.90;;;;;;4998242;28;20312;-51
2022/09/15 10:49:52;;;;;;;3.17;1.10;;;21.50;99.90;;;;;;5002935;28;20212;-50
2022/09/15 10:52:30;;;;;;;4.90;1.10;;;20.60;99.90;;;;;;5001570;28;20220;-52
2022/09/15 10:55:24;;;;;;;4.17;0.97;;;19.20;99.90;;;;;;5009852;28;20250;-51
2022/09/15 10:58:27;;;;;;;3.13;0.70;;;18.00;99.90;;;;;;5003277;28;20279;-49
2022/09/15 11:01:02;;;;;;;4.37;0.80;;;17.30;99.90;;;;;;5009007;28;20227;-53
2022/09/15 11:03:57;;;;;;;3.43;0.93;;;17.10;99.90;;;;;;5002012;28;20424;-52
2022/09/15 11:06:32;;;;;;;4.43;0.83;;;17.00;99.90;;;;;;4994265;28;20240;-51
2022/09/15 11:09:25;;;;;;;2.77;0.90;;;17.30;99.90;;;;;;5005312;28;20235;-53
2022/09/15 11:12:08;;;;;;;2.93;0.80;;;17.30;99.90;;;;;;4988998;28;20245;-52
2022/09/15 11:14:51;;;;;;;2.90;0.70;;;17.60;99.90;;;;;;5013346;28;20236;-52
2022/09/15 11:17:34;;;;;;;3.47;0.83;;;17.60;99.90;;;;;;4997213;28;20228;-50
2022/09/15 11:20:28;;;;;;;2.97;1.20;;;17.70;99.90;;;;;;5008806;28;20565;-50
2022/09/15 11:23:04;;;;;;;2.83;0.80;;;18.00;99.90;;;;;;5005997;28;20316;-50
2022/09/15 11:25:37;;;;;;;3.13;1.00;;;17.90;99.90;;;;;;5015485;28;20226;-51
2022/09/15 11:28:14;;;;;;;3.33;0.80;;;17.80;99.90;;;;;;5005644;28;20713;-50
2022/09/15 11:30:46;;;;;;;2.13;0.87;;;17.50;99.90;;;;;;5002715;28;20243;-51
2022/09/15 11:33:18;;;;;;;3.27;1.23;;;17.30;99.90;;;;;;5011649;28;20591;-50
2022/09/15 11:35:52;;;;;;;2.87;0.80;;;17.20;99.90;;;;;;5006026;28;20838;-50
2022/09/15 11:38:33;;;;;;;4.00;1.03;;;17.30;99.90;;;;;;5008551;28;20225;-50
2022/09/15 11:41:11;;;;;;;1.50;0.70;;;17.20;99.90;;;;;;5001930;28;20288;-52
2022/09/15 11:43:45;;;;;;;2.00;0.83;;;17.10;99.90;;;;;;5002465;28;20227;-51
2022/09/15 11:46:18;;;;;;;2.07;0.83;;;17.10;99.90;;;;;;5009733;28;20232;-52
2022/09/15 11:48:56;;;;;;;3.90;1.17;;;17.10;99.90;;;;;;5009824;28;20609;-51
2022/09/15 11:51:26;;;;;;;4.37;1.10;;;17.10;99.90;;;;;;4996158;28;20227;-53
2022/09/15 11:54:01;;;;;;;4.27;1.03;;;17.10;99.90;;;;;;5002722;28;20686;-53
2022/09/15 11:56:35;;;;;;;4.30;1.20;;;17.20;99.90;;;;;;5008134;28;20610;-52
2022/09/15 11:59:14;;;;;;;3.10;0.83;;;17.20;99.90;;;;;;5010848;28;20298;-52
2022/09/15 12:01:49;;;;;;;2.60;0.70;;;17.30;99.90;;;;;;4996565;28;20231;-50
2022/09/15 12:04:23;;;;;;;5.90;0.97;;;17.40;99.90;;;;;;5004913;28;20222;-52
2022/09/15 12:06:56;;;;;;;2.70;0.80;;;17.40;99.90;;;;;;5009528;28;20233;-53
2022/09/15 12:09:26;;;;;;;2.47;0.90;;;17.60;99.90;;;;;;5011337;28;20228;-50
2022/09/15 12:11:58;;;;;;;2.67;0.90;;;17.60;99.90;;;;;;5004666;28;20618;-49
2022/09/15 12:14:30;;;;;;;4.47;1.10;;;17.60;99.90;;;;;;5002464;28;20697;-52
2022/09/15 12:16:59;;;;;;;3.57;1.07;;;17.70;99.90;;;;;;5007326;28;20625;-51
2022/09/15 12:19:44;;;;;;;2.10;0.80;;;17.60;99.90;;;;;;5010225;28;20225;-51
2022/09/15 12:22:18;;;;;;;1.90;0.90;;;17.60;99.90;;;;;;4998540;28;20234;-53
2022/09/15 12:24:53;;;;;;;3.70;1.23;;;17.70;99.90;;;;;;4997915;28;20239;-53
2022/09/15 12:27:28;;;;;;;1.77;0.90;;;17.70;99.90;;;;;;5006868;28;20230;-51
2022/09/15 12:29:57;;;;;;;4.90;1.30;;;17.90;99.90;;;;;;5013997;28;20227;-49
2022/09/15 12:32:27;;;;;;;4.27;1.10;;;18.00;99.90;;;;;;5003794;28;20229;-51
2022/09/15 12:35:05;;;;;;;2.70;1.27;;;18.20;99.90;;;;;;5000939;28;20295;-50
2022/09/15 12:37:43;;;;;;;5.33;1.23;;;18.60;99.90;;;;;;5003428;28;20273;-52
2022/09/15 12:40:35;;;;;;;4.67;1.20;;;18.90;99.90;;;;;;5004267;28;20226;-51
2022/09/15 12:43:16;;;;;;;5.13;1.00;;;19.00;99.90;;;;;;4997987;28;20230;-50
2022/09/15 12:45:55;;;;;;;2.20;0.87;;;18.90;99.90;;;;;;4994670;28;20714;-51
2022/09/15 12:48:27;;;;;;;4.33;1.10;;;18.70;99.90;;;;;;5008160;28;20237;-51
2022/09/15 12:50:58;;;;;;;5.70;1.30;;;18.40;99.90;;;;;;5012465;28;20266;-51
2022/09/15 12:53:28;;;;;;;4.93;1.20;;;18.00;99.90;;;;;;5010841;28;20236;-52
2022/09/15 12:56:01;;;;;;;5.03;1.13;;;17.90;99.90;;;;;;5013477;28;20237;-49
2022/09/15 12:58:35;;;;;;;2.50;0.90;;;17.70;99.90;;;;;;5000746;28;20227;-48
2022/09/15 13:01:31;;;;;;;2.93;0.90;;;17.40;99.90;;;;;;4994867;28;20261;-52
2022/09/15 13:04:24;;;;;;;3.63;0.97;;;17.30;99.90;;;;;;4994652;28;20235;-50
2022/09/15 13:07:29;;;;;;;2.73;1.17;;;17.30;99.90;;;;;;4999058;28;20226;-50
2022/09/15 13:09:59;;;;;;;3.47;1.10;;;17.30;99.90;;;;;;5014999;28;20225;-49
2022/09/15 13:12:33;;;;;;;4.17;0.97;;;17.30;99.90;;;;;;5002345;28;20230;-50
2022/09/15 13:15:05;;;;;;;3.10;0.87;;;17.30;99.90;;;;;;5003407;28;20316;-52
2022/09/15 13:17:34;;;;;;;3.67;1.03;;;17.30;99.90;;;;;;4994979;28;20233;-52